Time;durP1;ratioP1;P1;durP2;ratioP2;P2;SDS_P1;SDS_P2;PMS_P1;PMS_P2;Temp;Humidity;BMP_temperature;BMP_pressure;BME280_temperature;BME280_humidity;BME280_pressure;Samples;Min_cycle;Max_cycle;Signal;HPM_P1;HPM_P2
2023/10/21 00:01:49;;;;;;;10.30;7.70;;;9.70;99.30;;;11.09;76.56;98638.31;3082888;46;20485;-65
2023/10/21 00:04:17;;;;;;;9.13;7.83;;;9.60;99.20;;;11.06;76.79;98633.50;3083030;46;20427;-66
2023/10/21 00:06:45;;;;;;;9.43;8.50;;;9.60;99.20;;;11.07;76.89;98635.13;3082840;46;20427;-66
2023/10/21 00:09:14;;;;;;;10.97;8.60;;;9.60;99.20;;;11.08;76.96;98636.72;3081957;46;20456;-65
2023/10/21 00:11:42;;;;;;;9.70;8.70;;;9.60;99.30;;;11.08;76.80;98637.50;3082894;46;21152;-66
2023/10/21 00:14:11;;;;;;;9.47;8.47;;;9.70;99.40;;;11.10;77.02;98639.94;3082970;46;20426;-66
2023/10/21 00:16:39;;;;;;;12.40;9.27;;;9.70;99.40;;;11.14;76.96;98641.88;3082588;46;20439;-66
2023/10/21 00:19:08;;;;;;;11.17;9.27;;;9.70;99.40;;;11.17;77.11;98651.16;3082751;46;21113;-65
2023/10/21 00:21:39;;;;;;;12.33;8.97;;;9.70;99.40;;;11.18;77.06;98647.47;3082943;46;20467;-66
2023/10/21 00:24:08;;;;;;;11.77;9.30;;;9.70;99.50;;;11.14;77.00;98646.34;3082408;46;20552;-67
2023/10/21 00:26:49;;;;;;;10.23;8.97;;;9.70;99.40;;;11.09;77.07;98654.13;3082284;46;20430;-66
2023/10/21 00:29:17;;;;;;;15.90;9.90;;;9.70;99.50;;;11.08;77.07;98648.03;3082215;46;21042;-62
2023/10/21 00:31:46;;;;;;;12.70;9.67;;;9.70;99.40;;;11.09;77.31;98659.38;3082791;46;20451;-66
2023/10/21 00:34:14;;;;;;;11.87;10.13;;;9.70;99.40;;;11.09;77.30;98659.38;3082939;46;20430;-64
2023/10/21 00:36:42;;;;;;;12.83;10.67;;;9.70;99.40;;;11.09;77.37;98662.00;3081397;46;20562;-66
2023/10/21 00:39:11;;;;;;;12.17;10.43;;;9.70;99.40;;;11.09;77.56;98668.09;3081320;46;20600;-66
2023/10/21 00:41:39;;;;;;;15.70;10.10;;;9.70;99.40;;;11.14;77.67;98667.41;3081885;46;20431;-66
2023/10/21 00:44:08;;;;;;;12.57;9.87;;;9.70;99.60;;;11.18;77.63;98663.25;3082069;46;20512;-64
2023/10/21 00:46:37;;;;;;;14.93;10.83;;;9.80;99.60;;;11.22;77.64;98669.69;3082474;46;20580;-66
2023/10/21 00:49:05;;;;;;;13.53;10.47;;;9.80;99.70;;;11.27;77.57;98670.59;3082311;46;20498;-65
2023/10/21 00:51:35;;;;;;;13.07;10.93;;;9.80;99.70;;;11.32;77.56;98669.91;3082357;46;20428;-66
2023/10/21 00:54:04;;;;;;;12.90;11.00;;;9.80;99.80;;;11.35;77.51;98670.25;3081845;46;21108;-66
2023/10/21 00:56:32;;;;;;;14.40;11.30;;;9.80;99.80;;;11.37;77.33;98673.44;3081824;46;21086;-66
2023/10/21 00:59:01;;;;;;;14.60;11.37;;;9.80;99.80;;;11.39;77.43;98676.66;3081810;46;20429;-66
2023/10/21 01:01:29;;;;;;;15.50;11.70;;;9.90;99.80;;;11.42;77.71;98675.38;3082136;46;20477;-69
2023/10/21 01:03:58;;;;;;;16.03;12.60;;;9.90;99.90;;;11.44;77.37;98683.84;3082649;46;20992;-66
2023/10/21 01:06:26;;;;;;;15.10;12.00;;;9.90;99.90;;;11.44;77.36;98683.84;3082257;46;20431;-66
2023/10/21 01:08:55;;;;;;;15.30;11.73;;;9.90;99.80;;;11.47;77.33;98684.22;3082080;46;20998;-66
2023/10/21 01:11:23;;;;;;;18.00;13.53;;;9.90;99.90;;;11.45;77.23;98690.75;3082416;46;21131;-66
2023/10/21 01:13:54;;;;;;;17.80;12.83;;;10.00;99.30;;;11.44;77.48;98694.41;3082399;46;20447;-66
2023/10/21 01:16:23;;;;;;;17.67;12.93;;;10.00;99.30;;;11.50;77.63;98693.50;3081602;46;20478;-63
2023/10/21 01:18:51;;;;;;;19.77;13.37;;;10.00;99.40;;;11.53;77.45;98685.09;3082005;46;21328;-66
2023/10/21 01:21:20;;;;;;;18.10;13.17;;;10.00;99.40;;;11.56;77.45;98692.56;3082432;46;20458;-66
2023/10/21 01:23:48;;;;;;;17.03;13.70;;;10.00;99.50;;;11.57;77.49;98688.91;3082099;46;20432;-66
2023/10/21 01:26:17;;;;;;;21.03;15.43;;;10.00;99.40;;;11.57;77.53;98692.34;3081969;46;20428;-68
2023/10/21 01:28:45;;;;;;;21.17;14.33;;;10.10;99.40;;;11.55;77.19;98706.78;3081754;46;20438;-66
2023/10/21 01:31:13;;;;;;;20.00;13.37;;;10.00;99.30;;;11.54;77.51;98708.59;3081327;46;20576;-65
2023/10/21 01:33:42;;;;;;;21.43;14.83;;;10.10;99.30;;;11.52;77.60;98712.50;3081797;46;21057;-65
2023/10/21 01:36:11;;;;;;;19.67;14.00;;;10.10;99.30;;;11.54;77.85;98711.22;3082273;46;20589;-66
2023/10/21 01:38:39;;;;;;;23.40;16.33;;;10.10;99.40;;;11.53;77.59;98714.09;3081299;46;20445;-66
2023/10/21 01:41:10;;;;;;;19.20;14.60;;;10.10;99.40;;;11.55;77.70;98717.31;3081667;46;21000;-66
2023/10/21 01:43:40;;;;;;;18.10;13.27;;;10.10;99.40;;;11.56;77.60;98718.91;3081909;46;20436;-66
2023/10/21 01:46:08;;;;;;;18.20;14.17;;;10.10;99.40;;;11.59;77.95;98723.72;3081629;46;20494;-66
2023/10/21 01:48:36;;;;;;;17.20;13.50;;;10.10;99.40;;;11.58;77.84;98722.91;3080835;46;20522;-66
2023/10/21 01:51:05;;;;;;;18.87;13.93;;;10.10;99.40;;;11.62;77.67;98725.09;3081632;46;20471;-66
2023/10/21 01:53:33;;;;;;;17.90;14.50;;;10.10;99.50;;;11.64;77.85;98726.47;3081477;46;20451;-68
2023/10/21 01:56:03;;;;;;;22.23;15.50;;;10.20;99.50;;;11.65;77.78;98732.53;3081836;46;20588;-66
2023/10/21 01:58:31;;;;;;;17.90;15.03;;;10.10;99.50;;;11.66;77.91;98734.94;3081315;46;20565;-66
2023/10/21 02:01:09;;;;;;;18.40;14.57;;;10.20;99.50;;;11.66;77.76;98729.66;3081342;46;20528;-65
2023/10/21 02:03:43;;;;;;;18.07;13.77;;;10.20;99.50;;;11.67;77.62;98731.25;3081474;46;20431;-66
2023/10/21 02:06:11;;;;;;;24.50;15.17;;;10.20;99.60;;;11.66;77.67;98737.56;3081770;46;20440;-66
2023/10/21 02:08:40;;;;;;;20.10;14.20;;;10.20;99.40;;;11.63;77.89;98740.66;3081679;46;20522;-66
2023/10/21 02:11:08;;;;;;;20.40;13.87;;;10.20;99.40;;;11.62;78.01;98736.44;3081139;46;20444;-65
2023/10/21 02:13:37;;;;;;;20.97;14.43;;;10.20;99.40;;;11.62;78.04;98749.59;3081746;46;20428;-66
2023/10/21 02:16:09;;;;;;;24.20;17.30;;;10.20;99.50;;;11.65;78.18;98749.13;3081196;46;20428;-66
2023/10/21 02:18:38;;;;;;;19.73;15.90;;;10.20;99.50;;;11.72;78.10;98759.59;3081634;46;20572;-66
2023/10/21 02:21:07;;;;;;;21.93;16.17;;;10.20;99.60;;;11.72;77.98;98760.38;3080592;46;21124;-66
2023/10/21 02:23:36;;;;;;;21.93;15.73;;;10.30;99.70;;;11.74;77.96;98753.06;3081661;46;20581;-61
2023/10/21 02:26:06;;;;;;;23.20;15.80;;;10.30;99.70;;;11.68;78.06;98761.88;3081574;46;20532;-66
2023/10/21 02:28:35;;;;;;;22.17;16.47;;;10.30;99.50;;;11.69;78.08;98742.41;3080981;46;21130;-66
2023/10/21 02:31:03;;;;;;;21.90;15.63;;;10.30;99.60;;;11.71;78.03;98752.72;3081151;46;21080;-66
2023/10/21 02:33:32;;;;;;;29.17;15.70;;;10.30;99.60;;;11.71;77.95;98758.78;3081460;46;20431;-68
2023/10/21 02:36:00;;;;;;;38.47;16.33;;;10.30;99.60;;;11.73;78.31;98756.72;3081396;46;20562;-68
2023/10/21 02:38:29;;;;;;;23.07;15.50;;;10.30;99.60;;;11.76;78.02;98755.47;3079811;46;20569;-66
2023/10/21 02:40:57;;;;;;;21.17;15.23;;;10.30;99.70;;;11.80;78.18;98762.69;3081173;46;21105;-65
2023/10/21 02:43:27;;;;;;;34.13;16.00;;;10.30;99.80;;;11.80;77.95;98765.31;3081046;46;20431;-66
2023/10/21 02:45:55;;;;;;;28.20;15.27;;;10.30;99.80;;;11.81;77.95;98766.94;3080991;46;20495;-66
2023/10/21 02:48:24;;;;;;;25.13;16.33;;;10.30;99.70;;;11.84;77.97;98769.06;3081007;46;20438;-66
2023/10/21 02:50:53;;;;;;;33.93;16.20;;;10.30;99.70;;;11.83;77.95;98777.22;3080990;46;20466;-66
2023/10/21 02:53:21;;;;;;;30.80;15.47;;;10.30;99.80;;;11.77;77.61;98784.22;3080697;46;20546;-65
2023/10/21 02:55:50;;;;;;;35.00;16.60;;;10.30;99.60;;;11.74;77.85;98789.16;3080475;46;20514;-65
2023/10/21 02:58:18;;;;;;;21.40;14.60;;;10.30;99.60;;;11.75;77.93;98786.28;3080869;46;20561;-67
2023/10/21 03:00:48;;;;;;;25.13;15.43;;;10.30;99.60;;;11.75;78.05;98785.47;3080143;46;20522;-66
2023/10/21 03:03:16;;;;;;;29.43;15.77;;;10.30;99.70;;;11.75;78.27;98788.91;3081040;46;21050;-65
2023/10/21 03:05:45;;;;;;;23.23;15.13;;;10.30;99.70;;;11.79;78.24;98791.91;3081273;46;20596;-66
2023/10/21 03:08:13;;;;;;;22.67;16.40;;;10.30;99.80;;;11.83;78.36;98793.03;3080498;46;21117;-66
2023/10/21 03:10:41;;;;;;;20.53;15.87;;;10.30;99.80;;;11.86;78.14;98793.38;3080523;46;20500;-66
2023/10/21 03:13:10;;;;;;;24.20;15.87;;;10.30;99.90;;;11.90;78.26;98794.53;3081249;46;21035;-65
2023/10/21 03:15:38;;;;;;;25.63;16.90;;;10.30;99.90;;;11.92;78.04;98797.72;3081026;46;20572;-66
2023/10/21 03:18:07;;;;;;;20.67;15.83;;;10.40;99.90;;;11.94;78.00;98800.94;3080771;46;20424;-66
2023/10/21 03:20:35;;;;;;;25.17;15.97;;;10.40;99.90;;;11.96;78.05;98793.59;3080528;46;21104;-66
2023/10/21 03:23:04;;;;;;;20.57;16.03;;;10.40;99.90;;;11.97;77.81;98800.47;3080378;46;20508;-66
2023/10/21 03:25:33;;;;;;;23.93;16.23;;;10.40;99.90;;;11.99;77.80;98803.69;3080960;46;21122;-68
2023/10/21 03:28:11;;;;;;;25.53;15.73;;;10.40;99.90;;;11.97;77.53;98797.84;3079917;46;20427;-68
2023/10/21 03:30:40;;;;;;;23.37;16.27;;;10.40;99.90;;;11.97;77.69;98810.22;3079646;46;20526;-66
2023/10/21 03:33:08;;;;;;;22.63;16.93;;;10.40;99.90;;;11.99;77.96;98798.41;3080224;46;20454;-68
2023/10/21 03:35:37;;;;;;;29.67;15.63;;;10.40;99.90;;;11.98;77.69;98807.34;3079463;46;20561;-65
2023/10/21 03:38:05;;;;;;;21.63;15.97;;;10.40;99.90;;;12.00;77.98;98809.78;3080458;46;20946;-67
2023/10/21 03:40:33;;;;;;;21.73;16.73;;;10.40;99.90;;;11.99;77.85;98806.31;3080239;46;20575;-66
2023/10/21 03:43:02;;;;;;;21.60;15.97;;;10.50;99.90;;;12.02;77.71;98810.34;3080559;46;20427;-66
2023/10/21 03:45:30;;;;;;;23.63;17.10;;;10.50;99.90;;;12.04;77.65;98811.72;3080606;46;20431;-66
2023/10/21 03:47:59;;;;;;;22.30;17.10;;;10.50;99.90;;;12.00;77.58;98810.56;3080624;46;20482;-65
2023/10/21 03:50:27;;;;;;;20.47;15.37;;;10.50;99.90;;;12.03;77.83;98802.19;3079990;46;21101;-66
2023/10/21 03:52:55;;;;;;;22.70;16.57;;;10.50;99.90;;;12.05;77.72;98802.75;3080510;46;20550;-66
2023/10/21 03:55:24;;;;;;;19.93;15.03;;;10.50;99.90;;;12.08;77.88;98807.56;3080625;46;20439;-67
2023/10/21 03:57:52;;;;;;;19.77;15.70;;;10.50;99.90;;;12.11;78.02;98815.03;3080859;46;20483;-65
2023/10/21 04:00:21;;;;;;;21.77;15.63;;;10.50;99.90;;;12.14;78.04;98811.94;3080536;46;20439;-65
2023/10/21 04:02:50;;;;;;;24.57;15.83;;;10.50;99.90;;;12.17;77.76;98815.94;3081120;46;20499;-67
2023/10/21 04:05:18;;;;;;;25.53;15.97;;;10.50;99.90;;;12.21;77.97;98817.88;3081035;46;20428;-66
2023/10/21 04:07:46;;;;;;;21.93;16.07;;;10.60;99.90;;;12.24;78.11;98822.66;3082349;46;20490;-66
2023/10/21 04:10:15;;;;;;;21.50;15.70;;;10.60;99.90;;;12.28;77.99;98830.94;3085795;46;20570;-66
2023/10/21 04:12:43;;;;;;;20.43;15.13;;;10.60;99.90;;;12.30;78.06;98825.41;3082093;46;21162;-66
2023/10/21 04:15:12;;;;;;;21.10;16.53;;;10.60;99.90;;;12.31;77.43;98829.66;3082573;46;20505;-67
2023/10/21 04:17:40;;;;;;;22.83;15.47;;;10.70;99.90;;;12.29;77.29;98827.25;3082425;46;20590;-68
2023/10/21 04:20:09;;;;;;;20.70;15.40;;;10.70;99.90;;;12.31;77.87;98829.66;3082277;46;20439;-66
2023/10/21 04:22:39;;;;;;;21.03;15.57;;;10.70;99.90;;;12.34;77.82;98831.84;3082838;46;20565;-66
2023/10/21 04:25:08;;;;;;;21.47;15.17;;;10.70;99.90;;;12.35;77.44;98833.44;3082829;46;20967;-66
2023/10/21 04:27:37;;;;;;;19.27;14.90;;;10.70;99.90;;;12.35;77.44;98833.44;3082951;46;20977;-66
2023/10/21 04:30:08;;;;;;;20.70;15.67;;;10.70;99.90;;;12.38;77.63;98840.91;3081401;46;20477;-68
2023/10/21 04:32:36;;;;;;;20.70;15.23;;;10.70;99.90;;;12.41;77.93;98849.13;3081853;46;21101;-67
2023/10/21 04:35:05;;;;;;;21.47;16.13;;;10.70;99.90;;;12.46;77.97;98851.06;3082523;46;20428;-67
2023/10/21 04:37:34;;;;;;;23.50;15.83;;;10.80;99.90;;;12.46;77.57;98856.34;3082080;46;20492;-68
2023/10/21 04:40:04;;;;;;;19.93;14.90;;;10.80;99.90;;;12.49;77.61;98856.69;3082088;46;20480;-66
2023/10/21 04:42:32;;;;;;;19.67;14.20;;;10.80;99.90;;;12.48;77.70;98854.31;3083205;46;20560;-66
2023/10/21 04:45:00;;;;;;;22.73;16.17;;;10.80;99.90;;;12.51;77.60;98853.81;3081976;46;20428;-65
2023/10/21 04:47:30;;;;;;;21.97;16.00;;;10.80;99.90;;;12.53;77.89;98849.09;3082629;46;21070;-67
2023/10/21 04:49:58;;;;;;;20.17;15.43;;;10.80;99.90;;;12.51;77.18;98857.25;3082027;46;20463;-67
2023/10/21 04:52:26;;;;;;;21.13;15.20;;;10.80;99.90;;;12.52;77.51;98860.72;3082812;46;20548;-66
2023/10/21 04:54:55;;;;;;;22.37;16.47;;;10.80;99.90;;;12.53;77.14;98867.56;3082399;46;20570;-66
2023/10/21 04:57:23;;;;;;;20.73;15.63;;;10.90;99.90;;;12.53;77.46;98857.00;3082586;46;20456;-66
2023/10/21 04:59:51;;;;;;;19.23;15.30;;;10.90;99.90;;;12.54;77.57;98872.63;3081426;46;20480;-68
2023/10/21 05:02:20;;;;;;;21.57;15.03;;;10.90;99.90;;;12.56;77.03;98869.75;3082537;46;20448;-67
2023/10/21 05:04:50;;;;;;;22.63;16.80;;;10.90;99.90;;;12.57;77.32;98874.00;3082725;46;21053;-66
2023/10/21 05:07:19;;;;;;;21.90;15.57;;;10.90;99.90;;;12.57;77.06;98869.53;3082291;46;20510;-66
2023/10/21 05:09:47;;;;;;;20.43;15.53;;;10.90;99.90;;;12.57;77.12;98874.00;3081789;46;20455;-65
2023/10/21 05:12:16;;;;;;;21.37;14.87;;;10.90;99.90;;;12.58;77.03;98875.59;3081936;46;20475;-66
2023/10/21 05:14:44;;;;;;;20.30;15.43;;;10.90;99.90;;;12.58;77.52;98881.69;3081730;46;21045;-70
2023/10/21 05:17:12;;;;;;;22.30;15.93;;;11.00;99.90;;;12.61;77.31;98888.34;3082205;46;20501;-67
2023/10/21 05:19:41;;;;;;;19.47;15.10;;;10.90;99.90;;;12.62;77.21;98897.88;3081583;46;20463;-66
2023/10/21 05:22:09;;;;;;;19.30;15.60;;;11.00;99.90;;;12.62;77.55;98897.88;3082092;46;21024;-66
2023/10/21 05:24:38;;;;;;;19.80;15.47;;;11.00;99.90;;;12.64;77.56;98896.59;3081612;46;20553;-67
2023/10/21 05:27:06;;;;;;;21.60;15.47;;;11.00;99.90;;;12.67;77.25;98906.66;3081694;46;20428;-66
2023/10/21 05:29:34;;;;;;;19.80;15.33;;;11.00;99.90;;;12.70;77.20;98916.78;3081356;46;21043;-65
2023/10/21 05:32:03;;;;;;;22.23;16.10;;;11.00;99.90;;;12.73;77.37;98912.88;3082272;46;20431;-66
2023/10/21 05:34:32;;;;;;;19.53;15.73;;;11.00;99.90;;;12.74;77.06;98919.75;3081135;46;20933;-68
2023/10/21 05:37:00;;;;;;;20.70;15.90;;;11.00;99.90;;;12.75;77.07;98924.00;3081992;46;20442;-66
2023/10/21 05:39:29;;;;;;;24.30;16.80;;;11.00;99.90;;;12.77;77.41;98924.56;3081486;46;20493;-66
2023/10/21 05:41:57;;;;;;;21.23;15.60;;;11.10;99.90;;;12.77;77.35;98928.00;3081675;46;20452;-66
2023/10/21 05:44:26;;;;;;;22.40;17.33;;;11.10;99.90;;;12.79;77.07;98927.75;3081706;46;20510;-67
2023/10/21 05:47:14;;;;;;;19.67;14.43;;;11.10;99.90;;;12.78;77.24;98940.19;3082008;46;20431;-65
2023/10/21 05:49:42;;;;;;;19.17;14.93;;;11.10;99.90;;;12.76;76.76;98938.81;3081096;46;20443;-68
2023/10/21 05:52:11;;;;;;;20.33;15.13;;;11.10;99.90;;;12.77;76.98;98943.84;3082130;46;20549;-66
2023/10/21 05:54:39;;;;;;;21.60;16.37;;;11.10;99.90;;;12.77;76.96;98950.94;3081402;46;21093;-68
2023/10/21 05:57:07;;;;;;;18.23;14.30;;;11.10;99.90;;;12.79;77.29;98951.50;3081836;46;20463;-66
2023/10/21 05:59:36;;;;;;;19.23;15.20;;;11.10;99.90;;;12.81;77.11;98954.75;3080326;46;21073;-66
2023/10/21 06:02:05;;;;;;;19.50;14.33;;;11.10;99.90;;;12.82;77.02;98957.16;3081614;46;20957;-67
2023/10/21 06:04:34;;;;;;;21.23;14.87;;;11.10;99.90;;;12.83;77.09;98964.03;3081949;46;20979;-68
2023/10/21 06:07:03;;;;;;;18.53;14.07;;;11.10;99.90;;;12.85;76.95;98966.44;3081412;46;21029;-67
2023/10/21 06:09:31;;;;;;;18.53;13.93;;;11.20;99.90;;;12.87;77.18;98969.66;3080619;46;20631;-65
2023/10/21 06:12:00;;;;;;;21.43;15.17;;;11.20;99.90;;;12.86;76.64;98974.13;3082023;46;20456;-65
2023/10/21 06:14:28;;;;;;;17.90;15.23;;;11.20;99.90;;;12.86;76.53;98970.66;3081739;46;20528;-66
2023/10/21 06:16:58;;;;;;;19.40;15.13;;;11.20;99.90;;;12.87;77.02;98974.94;3081619;46;20427;-66
2023/10/21 06:19:27;;;;;;;18.13;14.03;;;11.20;99.90;;;12.89;77.29;98986.06;3081388;46;21052;-66
2023/10/21 06:21:55;;;;;;;19.90;15.27;;;11.20;99.90;;;12.88;76.50;98982.59;3081424;46;20493;-66
2023/10/21 06:24:25;;;;;;;16.93;13.17;;;11.20;99.90;;;12.91;77.41;98986.63;3080918;46;21139;-67
2023/10/21 06:26:53;;;;;;;16.50;14.33;;;11.30;99.90;;;12.94;77.33;98994.09;3081504;46;20572;-67
2023/10/21 06:29:23;;;;;;;18.03;14.60;;;11.20;99.90;;;12.99;77.28;99003.94;3081022;46;20451;-68
2023/10/21 06:31:52;;;;;;;16.70;13.17;;;11.30;99.90;;;13.04;77.13;99004.88;3081922;46;20574;-67
2023/10/21 06:34:20;;;;;;;16.50;14.10;;;11.30;99.90;;;13.10;77.62;99013.75;3080981;46;21080;-67
2023/10/21 06:36:49;;;;;;;16.40;14.20;;;11.30;99.90;;;13.14;77.57;99018.31;3080310;46;21100;-68
2023/10/21 06:39:18;;;;;;;15.37;13.33;;;11.40;99.90;;;13.19;76.87;99020.25;3080707;46;20450;-66
2023/10/21 06:41:47;;;;;;;17.20;14.00;;;11.40;99.90;;;13.20;76.65;99027.13;3081178;46;20432;-67
2023/10/21 06:44:16;;;;;;;17.23;13.70;;;11.40;99.90;;;13.22;77.12;99036.44;3080802;46;20469;-64
2023/10/21 06:46:44;;;;;;;17.03;14.87;;;11.40;99.90;;;13.25;77.23;99030.69;3081221;46;20440;-64
2023/10/21 06:49:13;;;;;;;19.60;17.00;;;11.40;99.90;;;13.30;77.30;99041.38;3080661;46;20486;-67
2023/10/21 06:51:41;;;;;;;16.93;14.73;;;11.50;99.90;;;13.36;77.90;99050.97;3080789;46;20542;-67
2023/10/21 06:54:10;;;;;;;16.83;13.90;;;11.50;99.90;;;13.41;77.62;99051.09;3080853;46;21127;-67
2023/10/21 06:56:38;;;;;;;16.63;13.23;;;11.60;99.90;;;13.46;77.23;99058.31;3081116;46;20424;-66
2023/10/21 06:59:06;;;;;;;14.53;12.93;;;11.60;99.90;;;13.48;77.25;99057.03;3081077;46;20562;-67
2023/10/21 07:01:35;;;;;;;14.90;12.60;;;11.60;99.90;;;13.51;77.04;99056.59;3080955;46;20427;-68
2023/10/21 07:04:03;;;;;;;14.20;12.67;;;11.60;99.90;;;13.55;76.93;99068.28;3080351;46;20499;-67
2023/10/21 07:06:32;;;;;;;17.03;13.10;;;11.70;99.90;;;13.57;76.96;99071.50;3080544;46;20556;-68
2023/10/21 07:09:00;;;;;;;17.20;13.30;;;11.70;99.90;;;13.60;76.66;99075.50;3080588;46;20459;-65
2023/10/21 07:11:29;;;;;;;15.07;13.40;;;11.80;99.90;;;13.63;76.82;99079.53;3080678;46;20464;-65
2023/10/21 07:13:58;;;;;;;16.57;13.20;;;11.70;99.90;;;13.66;76.85;99089.63;3080979;46;20519;-66
2023/10/21 07:16:26;;;;;;;15.87;13.23;;;11.80;99.90;;;13.69;76.87;99083.88;3080710;46;20575;-67
2023/10/21 07:18:55;;;;;;;14.47;11.60;;;11.80;99.90;;;13.72;76.89;99089.50;3080261;46;20438;-68
2023/10/21 07:21:24;;;;;;;13.80;12.17;;;11.80;99.90;;;13.76;76.89;99095.13;3080958;46;20502;-66
2023/10/21 07:23:52;;;;;;;16.73;13.80;;;11.90;99.90;;;13.80;76.76;99106.84;3080567;46;20474;-67
2023/10/21 07:26:20;;;;;;;14.83;13.03;;;11.90;99.90;;;13.82;76.69;99110.03;3080973;46;20518;-65
2023/10/21 07:28:49;;;;;;;15.27;13.47;;;11.90;99.90;;;13.82;76.07;99110.03;3080265;46;20614;-66
2023/10/21 07:31:17;;;;;;;14.63;13.03;;;11.90;99.90;;;13.83;76.35;99111.66;3080643;46;20498;-66
2023/10/21 07:33:46;;;;;;;14.53;12.43;;;12.00;99.90;;;13.84;76.23;99121.19;3080081;46;20451;-67
2023/10/21 07:36:14;;;;;;;13.80;12.20;;;12.00;99.90;;;13.85;76.43;99120.97;3080584;46;20432;-64
2023/10/21 07:38:43;;;;;;;16.47;13.17;;;12.00;99.90;;;13.87;76.12;99123.38;3080081;46;20439;-66
2023/10/21 07:41:12;;;;;;;13.67;12.20;;;12.00;99.90;;;13.90;76.20;99128.19;3080208;46;21032;-66
2023/10/21 07:43:40;;;;;;;14.83;13.33;;;12.00;99.90;;;13.90;75.87;99133.47;3080335;46;20476;-67
2023/10/21 07:46:09;;;;;;;17.33;13.80;;;12.00;99.90;;;13.92;75.96;99136.69;3080432;46;20456;-66
2023/10/21 07:48:39;;;;;;;15.97;13.40;;;12.10;99.90;;;13.93;75.88;99138.31;3082906;46;20436;-66
2023/10/21 07:51:08;;;;;;;17.33;13.20;;;12.10;99.90;;;13.94;75.47;99153.13;3082273;46;21065;-66
2023/10/21 07:53:36;;;;;;;15.60;13.43;;;12.10;99.90;;;13.93;75.31;99154.97;3082825;46;20511;-67
2023/10/21 07:56:04;;;;;;;13.40;12.00;;;12.10;99.80;;;13.94;75.48;99155.78;3080555;43;21023;-66
2023/10/21 07:58:33;;;;;;;14.63;12.77;;;12.10;99.80;;;13.93;74.38;99159.47;3082430;46;20572;-66
2023/10/21 08:01:03;;;;;;;14.30;12.80;;;12.10;99.60;;;13.92;75.28;99168.44;3081096;46;20575;-68
2023/10/21 08:03:34;;;;;;;14.83;12.67;;;12.20;99.60;;;13.91;74.78;99174.75;3081689;46;20442;-68
2023/10/21 08:06:02;;;;;;;14.43;12.20;;;12.10;99.50;;;13.87;74.43;99182.38;3082427;46;20475;-67
2023/10/21 08:08:31;;;;;;;14.63;13.13;;;12.10;99.10;;;13.86;74.78;99182.59;3082744;46;20432;-67
2023/10/21 08:11:02;;;;;;;14.57;11.90;;;12.10;99.20;;;13.84;74.49;99187.31;3082528;46;21125;-68
2023/10/21 08:13:31;;;;;;;14.23;12.17;;;12.10;99.20;;;13.84;74.52;99187.31;3081553;46;20536;-67
2023/10/21 08:15:59;;;;;;;13.70;12.23;;;12.10;99.30;;;13.83;74.32;99188.34;3082288;44;21044;-67
2023/10/21 08:18:29;;;;;;;14.37;12.23;;;12.20;99.20;;;13.81;74.28;99198.38;3082539;46;20434;-67
2023/10/21 08:20:57;;;;;;;14.90;12.57;;;12.10;98.90;;;13.79;74.58;99195.13;3082540;46;20568;-66
2023/10/21 08:23:27;;;;;;;13.60;12.20;;;12.20;99.20;;;13.78;74.26;99199.63;3082536;46;20447;-68
2023/10/21 08:25:57;;;;;;;14.93;11.63;;;12.10;99.10;;;13.78;74.52;99209.41;3082688;46;20564;-66
2023/10/21 08:28:26;;;;;;;12.70;11.43;;;12.10;99.10;;;13.77;74.78;99207.78;3082323;46;20555;-67
2023/10/21 08:30:55;;;;;;;13.90;12.50;;;12.10;99.10;;;13.79;74.83;99206.50;3082507;46;20483;-67
2023/10/21 08:33:24;;;;;;;13.53;12.13;;;12.10;99.20;;;13.81;74.76;99209.72;3082859;46;20428;-66
2023/10/21 08:35:53;;;;;;;13.23;11.87;;;12.10;99.20;;;13.79;74.50;99216.28;3082248;46;20937;-66
2023/10/21 08:38:21;;;;;;;13.80;11.93;;;12.10;99.10;;;13.78;74.92;99212.03;3082158;46;20622;-67
2023/10/21 08:40:50;;;;;;;13.73;12.33;;;12.10;99.10;;;13.76;74.73;99212.28;3082338;46;20579;-67
2023/10/21 08:43:19;;;;;;;12.97;10.87;;;12.10;99.00;;;13.75;74.90;99215.16;3082551;46;20456;-66
2023/10/21 08:45:50;;;;;;;12.57;11.20;;;12.10;99.10;;;13.73;74.54;99207.47;3081709;46;20430;-67
2023/10/21 08:48:18;;;;;;;12.73;11.43;;;12.10;99.00;;;13.76;75.09;99219.41;3081906;46;20430;-65
2023/10/21 08:50:50;;;;;;;11.97;10.73;;;12.10;99.20;;;13.78;75.21;99225.28;3082142;46;21133;-67
2023/10/21 08:53:18;;;;;;;13.70;11.90;;;12.10;99.30;;;13.80;74.92;99233.78;3082280;46;20964;-66
2023/10/21 08:55:49;;;;;;;12.90;10.83;;;12.20;99.30;;;13.80;75.19;99228.47;3082047;46;21015;-67
2023/10/21 08:58:17;;;;;;;10.80;9.77;;;12.20;99.20;;;13.84;75.03;99245.47;3081113;46;20457;-71
2023/10/21 09:00:46;;;;;;;11.80;10.43;;;12.20;99.40;;;13.89;75.20;99242.94;3082253;46;20466;-67
2023/10/21 09:03:14;;;;;;;11.30;10.20;;;12.20;99.40;;;13.91;74.69;99246.16;3081676;46;20533;-66
2023/10/21 09:06:12;;;;;;;10.60;9.50;;;12.20;99.30;;;13.88;75.06;99251.94;3082200;46;20427;-67
2023/10/21 09:08:42;;;;;;;10.03;9.13;;;12.20;99.20;;;13.88;74.85;99263.28;3082197;46;21020;-67
2023/10/21 09:11:18;;;;;;;10.53;9.43;;;12.30;99.10;;;13.90;75.23;99273.66;3080661;46;21058;-66
2023/10/21 09:13:48;;;;;;;10.00;9.00;;;12.30;99.20;;;13.90;75.07;99277.13;3083154;46;20484;-69
2023/10/21 09:16:34;;;;;;;10.07;8.87;;;12.30;99.10;;;13.90;74.85;99278.94;3080945;46;20529;-67
2023/10/21 09:19:08;;;;;;;9.97;8.83;;;12.30;99.20;;;13.93;75.03;99292.50;3081692;46;21017;-65
2023/10/21 09:21:39;;;;;;;9.53;8.50;;;12.30;99.30;;;14.00;75.63;99290.53;3081389;46;20447;-68
2023/10/21 09:24:12;;;;;;;9.77;8.77;;;12.30;99.40;;;14.06;74.96;99291.47;3081734;46;21019;-65
2023/10/21 09:26:46;;;;;;;9.60;8.70;;;12.30;99.40;;;14.05;74.94;99297.78;3082082;46;20456;-66
2023/10/21 09:29:20;;;;;;;8.53;7.73;;;12.40;99.30;;;14.03;74.17;99299.84;3081850;46;20534;-67
2023/10/21 09:31:54;;;;;;;8.57;7.77;;;12.40;99.10;;;14.05;74.68;99306.53;3081807;46;20515;-67
2023/10/21 09:34:29;;;;;;;9.40;8.50;;;12.40;99.20;;;14.08;74.80;99307.91;3081238;46;21028;-66
2023/10/21 09:37:00;;;;;;;10.50;8.97;;;12.40;99.30;;;14.14;74.85;99317.56;3081093;46;20591;-66
2023/10/21 09:39:36;;;;;;;8.80;7.77;;;12.40;99.40;;;14.18;74.97;99316.06;3081529;46;20585;-67
2023/10/21 09:42:06;;;;;;;9.30;8.30;;;12.50;99.40;;;14.24;75.10;99317.75;3080842;46;20432;-66
2023/10/21 09:44:35;;;;;;;10.10;9.20;;;12.50;99.50;;;14.29;74.98;99325.81;3081700;46;20440;-58
2023/10/21 09:47:08;;;;;;;9.37;8.37;;;12.50;99.40;;;14.33;74.52;99329.66;3081728;46;20541;-62
2023/10/21 09:49:38;;;;;;;8.50;7.60;;;12.60;99.50;;;14.37;74.88;99322.03;3080712;46;20443;-61
2023/10/21 09:52:15;;;;;;;10.23;8.83;;;12.60;99.40;;;14.40;74.78;99322.38;3081127;46;21022;-61
2023/10/21 09:55:11;;;;;;;9.10;8.30;;;12.60;99.30;;;14.43;74.27;99321.91;3080447;46;20436;-62
2023/10/21 09:57:42;;;;;;;10.40;8.37;;;12.70;99.30;;;14.58;75.20;99332.81;3081718;46;20500;-61
2023/10/21 10:00:12;;;;;;;9.37;8.47;;;12.80;99.60;;;14.68;74.66;99346.25;3080483;46;20443;-63
2023/10/21 10:02:47;;;;;;;9.47;7.90;;;12.80;99.60;;;14.78;74.38;99346.47;3081885;46;20699;-61
2023/10/21 10:05:20;;;;;;;9.00;8.00;;;12.90;99.70;;;14.81;74.03;99348.63;3081212;46;20583;-62
2023/10/21 10:07:50;;;;;;;11.37;8.07;;;13.00;99.40;;;14.90;74.28;99344.53;3081134;46;20432;-60
2023/10/21 10:10:25;;;;;;;8.07;7.30;;;13.00;99.40;;;14.98;74.08;99350.50;3080991;46;20439;-63
2023/10/21 10:13:06;;;;;;;8.20;7.40;;;13.10;99.30;;;15.10;73.94;99352.06;3080997;46;20448;-62
2023/10/21 10:15:40;;;;;;;9.13;7.67;;;13.20;99.60;;;15.29;73.87;99347.34;3080834;46;20458;-62
2023/10/21 10:18:21;;;;;;;8.67;7.80;;;13.30;99.60;;;15.38;73.33;99354.69;3080760;46;20431;-63